Aérodrome :
LOGIN :

S'inscrire | Disclaimer

   EN    FR    IT 

 










Légende :    VFR   VFR Marginal   IFR   IFR Intensif   IFR Très Intensif
Visi : 
Plafond : 
>= 8 km
>= 3000ft
5 à 8 km
1000 à 3000 ft
1500m à 5 km
500 à 1000 ft
800 à 1500m
200 à 500 ft
< 800m
< 200 ft
Symboles :   Orages  Brouillard  Fortes neiges  Fortes précipitations  Vent > 20 kt
SIGMETs :   Divers  Orages  Givrage  Turbulence  Onde Orograph.  Cendres Volcan.







- Altitude de l'aérodrome : 112 ft
- Code IATA : KIR


EIKY - Kerry Farranfore

DERNIER METAR :
  • 240930Z 09002KT 9999 SCT024 14/12 Q1014

METARs EXPIRÉS :
  • 240900Z 07003KT 9999 SCT028 13/12 Q1014
  • 240830Z 10003KT 080V140 9999 SCT024 12/11 Q1014
  • 240800Z VRB01KT 9999 SCT023 SCT028 12/11 Q1014
  • 240730Z 18006KT 9999 SCT024 13/11 Q1013

TAF TAF EIKY
Valide du 24 à 09h jusqu'au 24 à 18h UTC


240800Z 2409/2418 18007KT 9999 FEW018 BKN040
TEMPO 2409/2415 7000 -SHRA SCT018CB
BECMG 2412/2415 23008KT
Pas de NOTAMs connus pour ce terrain.



MET'MAP, la Météo Aéronautique d'un coup d'oeil ! - Copyright ORBIFLY Décembre 2007 - Disclaimer

ORBIFLY MET'MAP TEAM :

Programmation & Développement : Alexandra Zaïnal
Conception & Développement : Baudouin d'Aumeries
Co-Programmation & Développement : Marc-Olivier Méhu
Soutien technique & logistique : Manuel Goepfert

Contact : metmap@orbifly.com




SOURCES & CREDITS :

   NOAA